createdAt,value
2018-08-25T00:00:52.827Z,20.30
2018-08-25T00:03:21.784Z,20.26
2018-08-25T00:05:50.700Z,20.22
2018-08-25T00:08:19.676Z,20.17
2018-08-25T00:10:48.612Z,20.14
2018-08-25T00:13:17.544Z,20.08
2018-08-25T00:15:46.509Z,20.02
2018-08-25T00:18:15.448Z,19.99
2018-08-25T00:20:44.437Z,19.96
2018-08-25T00:23:13.404Z,19.89
2018-08-25T00:25:42.344Z,19.87
2018-08-25T00:28:11.293Z,19.83
2018-08-25T00:30:45.229Z,19.80
2018-08-25T00:33:14.276Z,19.78
2018-08-25T00:35:43.212Z,19.78
2018-08-25T00:38:12.228Z,19.76
2018-08-25T00:40:41.157Z,19.72
2018-08-25T00:43:10.117Z,19.70
2018-08-25T00:45:39.081Z,19.69
2018-08-25T00:48:08.221Z,19.65
2018-08-25T00:50:37.341Z,19.65
2018-08-25T00:53:06.296Z,19.67
2018-08-25T00:55:35.373Z,19.69
2018-08-25T00:58:04.427Z,19.68
2018-08-25T01:00:33.457Z,19.69
2018-08-25T01:03:02.449Z,19.65
2018-08-25T01:05:32.006Z,19.63
2018-08-25T01:08:01.071Z,19.60
2018-08-25T01:10:30.174Z,19.52
2018-08-25T01:12:59.210Z,19.47
2018-08-25T01:15:28.202Z,19.43
2018-08-25T01:17:57.257Z,19.40
2018-08-25T01:20:26.305Z,19.36
2018-08-25T01:22:55.312Z,19.33
2018-08-25T01:25:24.368Z,19.31
2018-08-25T01:27:53.429Z,19.28
2018-08-25T01:30:22.464Z,19.22
2018-08-25T01:32:51.496Z,19.17
2018-08-25T01:35:20.733Z,19.13
2018-08-25T01:37:49.703Z,19.09
2018-08-25T01:40:18.691Z,19.08
2018-08-25T01:42:47.728Z,19.05
2018-08-25T01:45:16.664Z,18.98
2018-08-25T01:47:45.701Z,18.98
2018-08-25T01:50:14.633Z,18.98
2018-08-25T01:52:43.568Z,18.97
2018-08-25T01:55:12.700Z,18.95
2018-08-25T01:57:41.632Z,18.93
2018-08-25T02:00:10.710Z,18.91
2018-08-25T02:02:39.742Z,18.85
2018-08-25T02:05:08.764Z,18.79
2018-08-25T02:07:37.752Z,18.74
2018-08-25T02:10:07.144Z,18.70
2018-08-25T02:12:36.104Z,18.65
2018-08-25T02:15:05.174Z,18.62
2018-08-25T02:17:34.232Z,18.59
2018-08-25T02:20:03.245Z,18.54
2018-08-25T02:22:32.255Z,18.59
2018-08-25T02:25:01.220Z,18.61
2018-08-25T02:27:30.253Z,18.57
2018-08-25T02:29:59.248Z,18.59
2018-08-25T02:32:28.238Z,18.59
2018-08-25T02:34:57.264Z,18.61
2018-08-25T02:37:26.249Z,18.49
2018-08-25T02:39:55.347Z,18.53
2018-08-25T02:42:24.299Z,18.54
2018-08-25T02:44:53.344Z,18.57
2018-08-25T02:47:22.369Z,18.59
2018-08-25T02:49:51.377Z,18.63
2018-08-25T02:52:20.412Z,18.68
2018-08-25T02:54:49.356Z,18.69
2018-08-25T02:57:18.376Z,18.64
2018-08-25T02:59:47.381Z,18.62
2018-08-25T03:02:16.327Z,18.54
2018-08-25T03:04:45.349Z,18.48
2018-08-25T03:07:14.283Z,18.45
2018-08-25T03:09:43.369Z,18.43
2018-08-25T03:12:12.340Z,18.35
2018-08-25T03:14:41.342Z,18.33
2018-08-25T03:17:41.366Z,18.31
2018-08-25T03:20:10.420Z,18.26
2018-08-25T03:22:39.500Z,18.22
2018-08-25T03:25:08.457Z,18.23
2018-08-25T03:27:37.501Z,18.19
2018-08-25T03:30:06.469Z,18.18
2018-08-25T03:32:35.407Z,18.18
2018-08-25T03:35:04.364Z,18.19
2018-08-25T03:37:33.416Z,18.21
2018-08-25T03:40:02.566Z,18.22
2018-08-25T03:42:31.520Z,18.22
2018-08-25T03:45:00.493Z,18.24
2018-08-25T03:47:29.557Z,18.28
2018-08-25T03:49:58.557Z,18.33
2018-08-25T03:52:27.597Z,18.36
2018-08-25T03:54:56.612Z,18.42
2018-08-25T03:57:25.630Z,18.48
2018-08-25T03:59:54.685Z,18.55
2018-08-25T04:02:23.792Z,18.64
2018-08-25T04:04:52.829Z,18.73
2018-08-25T04:07:21.783Z,18.84
2018-08-25T04:09:50.802Z,18.92
2018-08-25T04:12:19.816Z,19.03
2018-08-25T04:14:48.943Z,19.09
2018-08-25T04:17:17.868Z,19.18
2018-08-25T04:19:46.873Z,19.27
2018-08-25T04:22:15.915Z,19.41
2018-08-25T04:24:44.876Z,19.49
2018-08-25T04:27:14.002Z,19.85
2018-08-25T04:29:42.952Z,20.72
2018-08-25T04:32:12.007Z,21.78
2018-08-25T04:34:40.956Z,22.56
2018-08-25T04:37:09.892Z,23.42
2018-08-25T04:39:38.864Z,24.18
2018-08-25T04:42:07.957Z,24.99
2018-08-25T04:44:36.945Z,25.80
2018-08-25T04:47:06.119Z,26.36
2018-08-25T04:49:35.234Z,27.13
2018-08-25T04:52:04.328Z,27.95
2018-08-25T04:54:33.325Z,28.56
2018-08-25T04:57:02.411Z,28.83
2018-08-25T04:59:31.469Z,29.22
2018-08-25T05:02:00.599Z,29.63
2018-08-25T05:04:29.495Z,30.05
2018-08-25T05:06:58.602Z,30.28
2018-08-25T05:09:27.604Z,30.64
2018-08-25T05:11:56.665Z,31.35
2018-08-25T05:14:25.631Z,31.87
2018-08-25T05:16:54.576Z,32.40
2018-08-25T05:19:23.543Z,32.53
2018-08-25T05:21:52.604Z,32.95
2018-08-25T05:24:21.753Z,33.58
2018-08-25T05:26:50.812Z,33.69
2018-08-25T05:29:19.833Z,34.04
2018-08-25T05:31:48.910Z,33.59
2018-08-25T05:34:18.076Z,32.65
2018-08-25T05:36:47.102Z,31.86
2018-08-25T05:39:16.105Z,31.36
2018-08-25T05:41:45.234Z,31.09
2018-08-25T05:44:14.335Z,30.81
2018-08-25T05:46:43.333Z,30.61
2018-08-25T05:49:12.388Z,30.44
2018-08-25T05:51:41.344Z,30.30
2018-08-25T05:54:10.309Z,31.34
2018-08-25T05:56:39.244Z,32.33
2018-08-25T05:59:08.252Z,33.17
2018-08-25T06:01:37.198Z,33.31
2018-08-25T06:04:06.150Z,33.49
2018-08-25T06:06:35.226Z,33.85
2018-08-25T06:09:06.197Z,33.93
2018-08-25T06:11:35.157Z,32.73
2018-08-25T06:14:04.201Z,31.69
2018-08-25T06:16:33.329Z,31.10
2018-08-25T06:19:02.297Z,30.44
2018-08-25T06:21:31.249Z,30.07
2018-08-25T06:24:00.336Z,29.76
2018-08-25T06:26:29.424Z,29.90
2018-08-25T06:28:58.416Z,29.60
2018-08-25T06:31:27.365Z,30.40
2018-08-25T06:33:56.451Z,31.81
2018-08-25T06:36:25.437Z,32.17
2018-08-25T06:38:54.455Z,32.26
2018-08-25T06:41:23.518Z,31.47
2018-08-25T06:43:52.491Z,30.66
2018-08-25T06:46:21.508Z,30.18
2018-08-25T06:48:50.525Z,29.79
2018-08-25T06:51:19.665Z,29.52
2018-08-25T06:53:48.692Z,29.13
2018-08-25T06:56:17.695Z,29.07
2018-08-25T06:58:46.716Z,28.85
2018-08-25T07:01:15.688Z,28.76
2018-08-25T07:03:44.684Z,28.93
2018-08-25T07:06:13.694Z,28.92
2018-08-25T07:08:42.716Z,29.31
2018-08-25T07:11:11.709Z,29.50
2018-08-25T07:13:40.717Z,29.42
2018-08-25T07:16:09.724Z,29.28
2018-08-25T07:18:38.725Z,29.37
2018-08-25T07:21:07.736Z,29.39
2018-08-25T07:23:36.740Z,29.35
2018-08-25T07:26:05.839Z,29.31
2018-08-25T07:28:34.861Z,29.46
2018-08-25T07:31:03.850Z,29.53
2018-08-25T07:33:32.856Z,29.80
2018-08-25T07:36:01.870Z,29.93
2018-08-25T07:38:32.064Z,29.96
2018-08-25T07:41:01.012Z,30.32
2018-08-25T07:43:30.089Z,31.13
2018-08-25T07:45:59.039Z,31.56
2018-08-25T07:48:28.041Z,31.85
2018-08-25T07:50:57.348Z,31.50
2018-08-25T07:53:26.365Z,31.38
2018-08-25T07:55:55.397Z,31.39
2018-08-25T07:58:24.474Z,31.42
2018-08-25T08:00:53.614Z,31.16
2018-08-25T08:03:22.574Z,31.26
2018-08-25T08:05:51.581Z,31.54
2018-08-25T08:08:20.537Z,31.95
2018-08-25T08:10:49.464Z,32.10
2018-08-25T08:13:18.615Z,32.19
2018-08-25T08:15:47.633Z,32.07
2018-08-25T08:18:16.669Z,31.66
2018-08-25T08:20:45.694Z,31.42
2018-08-25T08:23:14.694Z,31.45
2018-08-25T08:25:43.717Z,31.63
2018-08-25T08:28:12.743Z,31.73
2018-08-25T08:30:41.860Z,31.57
2018-08-25T08:33:11.231Z,31.57
2018-08-25T08:35:40.177Z,31.64
2018-08-25T08:38:09.233Z,31.63
2018-08-25T08:40:38.228Z,31.65
2018-08-25T08:43:07.255Z,31.74
2018-08-25T08:45:36.293Z,31.77
2018-08-25T08:48:05.281Z,31.91
2018-08-25T08:50:34.331Z,32.07
2018-08-25T08:53:03.201Z,32.09
2018-08-25T08:55:32.197Z,32.13
2018-08-25T08:58:01.224Z,32.14
2018-08-25T09:00:30.187Z,32.13
2018-08-25T09:02:59.181Z,32.21
2018-08-25T09:05:28.201Z,32.20
2018-08-25T09:07:57.231Z,32.16
2018-08-25T09:10:26.213Z,32.14
2018-08-25T09:12:55.253Z,32.41
2018-08-25T09:15:24.339Z,32.67
2018-08-25T09:17:53.360Z,32.69
2018-08-25T09:20:22.353Z,32.71
2018-08-25T09:22:51.680Z,32.84
2018-08-25T09:25:20.730Z,32.96
2018-08-25T09:27:49.761Z,33.08
2018-08-25T09:30:18.806Z,33.28
2018-08-25T09:32:47.833Z,33.15
2018-08-25T09:35:16.788Z,33.45
2018-08-25T09:37:45.824Z,33.68
2018-08-25T09:40:14.849Z,33.44
2018-08-25T09:42:43.855Z,33.50
2018-08-25T09:45:12.877Z,33.68
2018-08-25T09:47:41.855Z,33.79
2018-08-25T09:50:10.932Z,33.93
2018-08-25T09:52:40.093Z,33.87
2018-08-25T09:55:09.069Z,33.76
2018-08-25T09:57:38.030Z,33.73
2018-08-25T10:00:07.092Z,33.73
2018-08-25T10:02:36.189Z,33.84
2018-08-25T10:05:05.290Z,33.97
2018-08-25T10:07:34.322Z,33.82
2018-08-25T10:10:04.167Z,33.91
2018-08-25T10:12:33.199Z,34.09
2018-08-25T10:15:02.164Z,34.30
2018-08-25T10:17:31.159Z,34.50
2018-08-25T10:20:00.210Z,34.56
2018-08-25T10:22:29.289Z,34.79
2018-08-25T10:24:58.347Z,34.97
2018-08-25T10:27:27.403Z,35.15
2018-08-25T10:29:56.532Z,35.26
2018-08-25T10:32:25.485Z,35.36
2018-08-25T10:34:54.481Z,35.42
2018-08-25T10:37:23.462Z,35.27
2018-08-25T10:39:52.417Z,35.00
2018-08-25T10:42:21.409Z,34.73
2018-08-25T10:44:50.381Z,34.94
2018-08-25T10:47:19.488Z,35.77
2018-08-25T10:49:48.441Z,36.30
2018-08-25T10:52:17.565Z,36.75
2018-08-25T10:54:46.602Z,36.67
2018-08-25T10:57:15.596Z,36.62
2018-08-25T10:59:44.663Z,37.03
2018-08-25T11:02:29.102Z,37.33
2018-08-25T11:04:58.151Z,38.27
2018-08-25T11:07:27.112Z,38.77
2018-08-25T11:09:56.136Z,39.75
2018-08-25T11:12:25.155Z,40.75
2018-08-25T11:14:54.180Z,40.56
2018-08-25T11:17:23.193Z,40.10
2018-08-25T11:19:52.185Z,40.43
2018-08-25T11:22:21.339Z,40.94
2018-08-25T11:24:50.459Z,41.52
2018-08-25T11:27:19.571Z,41.49
2018-08-25T11:29:48.619Z,41.27
2018-08-25T11:32:17.663Z,40.80
2018-08-25T11:34:46.666Z,41.01
2018-08-25T11:37:15.906Z,41.52
2018-08-25T11:39:45.008Z,42.27
2018-08-25T11:42:14.178Z,42.52
2018-08-25T11:44:43.211Z,42.95
2018-08-25T11:47:14.238Z,42.99
2018-08-25T11:49:43.759Z,43.42
2018-08-25T11:52:13.080Z,42.98
2018-08-25T11:54:42.152Z,42.74
2018-08-25T11:57:11.381Z,42.68
2018-08-25T11:59:40.465Z,42.74
2018-08-25T12:02:09.633Z,42.41
2018-08-25T12:04:38.748Z,42.01
2018-08-25T12:07:07.990Z,42.10
2018-08-25T12:09:37.117Z,42.36
2018-08-25T12:12:06.235Z,42.21
2018-08-25T12:14:35.514Z,41.94
2018-08-25T12:17:04.680Z,41.87
2018-08-25T12:19:33.707Z,42.76
2018-08-25T12:22:02.855Z,43.19
2018-08-25T12:24:31.843Z,43.27
2018-08-25T12:27:02.776Z,43.15
2018-08-25T12:29:32.300Z,43.18
2018-08-25T12:32:01.886Z,43.55
2018-08-25T12:34:31.159Z,43.79
2018-08-25T12:37:00.390Z,44.46
2018-08-25T12:39:29.763Z,45.21
2018-08-25T12:41:59.081Z,45.56
2018-08-25T12:44:28.381Z,45.25
2018-08-25T12:46:57.744Z,45.28
2018-08-25T12:49:27.123Z,45.14
2018-08-25T12:51:56.369Z,44.78
2018-08-25T12:54:25.658Z,44.52
2018-08-25T12:56:54.983Z,44.74
2018-08-25T12:59:24.264Z,44.18
2018-08-25T13:01:53.609Z,43.32
2018-08-25T13:04:22.926Z,43.06
2018-08-25T13:06:52.214Z,42.65
2018-08-25T13:09:21.407Z,41.49
2018-08-25T13:11:50.715Z,40.32
2018-08-25T13:14:20.106Z,39.03
2018-08-25T13:16:49.440Z,37.92
2018-08-25T13:19:18.823Z,37.38
2018-08-25T13:21:48.130Z,36.73
2018-08-25T13:24:17.540Z,36.20
2018-08-25T13:26:46.891Z,35.73
2018-08-25T13:29:16.233Z,35.29
2018-08-25T13:31:45.524Z,34.99
2018-08-25T13:34:14.877Z,34.62
2018-08-25T13:36:44.153Z,34.30
2018-08-25T13:39:13.724Z,34.16
2018-08-25T13:41:43.392Z,34.04
2018-08-25T13:44:13.857Z,33.82
2018-08-25T13:46:43.733Z,33.71
2018-08-25T13:49:13.224Z,33.53
2018-08-25T13:51:42.533Z,33.42
2018-08-25T13:54:11.994Z,33.33
2018-08-25T13:56:41.292Z,33.18
2018-08-25T13:59:10.567Z,32.99
2018-08-25T14:01:39.906Z,32.96
2018-08-25T14:04:09.247Z,32.91
2018-08-25T14:06:38.490Z,32.73
2018-08-25T14:09:09.018Z,32.64
2018-08-25T14:11:38.287Z,32.43
2018-08-25T14:14:07.608Z,32.37
2018-08-25T14:16:36.934Z,32.32
2018-08-25T14:19:06.258Z,32.29
2018-08-25T14:21:35.660Z,32.20
2018-08-25T14:24:05.006Z,32.08
2018-08-25T14:26:34.383Z,31.95
2018-08-25T14:29:03.721Z,31.92
2018-08-25T14:31:33.031Z,31.92
2018-08-25T14:34:02.358Z,31.87
2018-08-25T14:36:31.807Z,31.86
2018-08-25T14:39:01.255Z,31.79
2018-08-25T14:41:30.619Z,31.58
2018-08-25T14:43:59.937Z,31.05
2018-08-25T14:46:29.210Z,30.48
2018-08-25T14:49:00.391Z,29.79
2018-08-25T14:51:29.742Z,29.15
2018-08-25T14:53:59.134Z,28.62
2018-08-25T14:56:28.913Z,28.03
2018-08-25T14:58:58.548Z,27.55
2018-08-25T15:01:27.902Z,27.20
2018-08-25T15:03:57.628Z,26.79
2018-08-25T15:06:27.243Z,26.46
2018-08-25T15:08:56.550Z,26.20
2018-08-25T15:11:25.881Z,25.95
2018-08-25T15:13:55.210Z,25.75
2018-08-25T15:16:24.637Z,25.56
2018-08-25T15:18:53.968Z,25.41
2018-08-25T15:21:23.219Z,25.30
2018-08-25T15:23:52.332Z,25.20
2018-08-25T15:26:21.716Z,25.14
2018-08-25T15:28:50.944Z,25.06
2018-08-25T15:31:20.407Z,25.01
2018-08-25T15:33:49.686Z,24.98
2018-08-25T15:36:18.879Z,24.92
2018-08-25T15:38:48.099Z,24.88
2018-08-25T15:41:17.215Z,24.84
2018-08-25T15:43:46.559Z,24.80
2018-08-25T15:46:15.717Z,24.55
2018-08-25T15:48:44.904Z,24.78
2018-08-25T15:51:14.025Z,24.71
2018-08-25T15:53:43.225Z,24.67
2018-08-25T15:56:12.435Z,24.59
2018-08-25T15:58:41.641Z,24.54
2018-08-25T16:01:10.973Z,24.47
2018-08-25T16:03:40.324Z,24.40
2018-08-25T16:06:09.800Z,24.36
2018-08-25T16:08:39.213Z,24.28
2018-08-25T16:11:08.564Z,24.21
2018-08-25T16:13:37.869Z,24.13
2018-08-25T16:16:07.133Z,24.04
2018-08-25T16:18:36.747Z,24.00
2018-08-25T16:21:06.459Z,23.96
2018-08-25T16:23:35.787Z,23.96
2018-08-25T16:26:05.061Z,23.90
2018-08-25T16:28:34.409Z,23.84
2018-08-25T16:31:03.755Z,23.74
2018-08-25T16:33:33.069Z,23.68
2018-08-25T16:36:02.407Z,23.66
2018-08-25T16:38:31.700Z,23.64
2018-08-25T16:41:01.041Z,23.61
2018-08-25T16:43:30.488Z,23.60
2018-08-25T16:45:59.843Z,23.60
2018-08-25T16:48:29.215Z,23.56
2018-08-25T16:50:58.596Z,23.52
2018-08-25T16:53:27.974Z,23.49
2018-08-25T16:55:57.452Z,23.47
2018-08-25T16:58:26.821Z,23.45
2018-08-25T17:00:56.210Z,23.38
2018-08-25T17:03:25.951Z,23.28
2018-08-25T17:05:55.946Z,23.26
2018-08-25T17:08:25.237Z,23.16
2018-08-25T17:10:54.686Z,23.05
2018-08-25T17:13:23.997Z,22.96
2018-08-25T17:15:53.356Z,22.88
2018-08-25T17:18:22.689Z,22.74
2018-08-25T17:20:52.067Z,22.67
2018-08-25T17:23:21.433Z,22.55
2018-08-25T17:25:50.788Z,22.50
2018-08-25T17:28:20.173Z,22.43
2018-08-25T17:30:49.521Z,22.32
2018-08-25T17:33:18.859Z,22.20
2018-08-25T17:35:48.245Z,22.08
2018-08-25T17:38:17.543Z,21.99
2018-08-25T17:40:46.858Z,21.90
2018-08-25T17:43:16.213Z,21.82
2018-08-25T17:45:45.724Z,21.71
2018-08-25T17:48:15.051Z,21.65
2018-08-25T17:50:44.429Z,21.58
2018-08-25T17:53:13.885Z,21.49
2018-08-25T17:55:43.235Z,21.37
2018-08-25T17:58:12.522Z,21.34
2018-08-25T18:00:41.811Z,21.28
2018-08-25T18:03:11.131Z,21.21
2018-08-25T18:05:40.467Z,21.14
2018-08-25T18:08:09.750Z,21.09
2018-08-25T18:10:39.046Z,21.10
2018-08-25T18:13:08.334Z,21.07
2018-08-25T18:15:37.765Z,21.04
2018-08-25T18:18:07.952Z,20.96
2018-08-25T18:20:37.315Z,20.94
2018-08-25T18:23:06.649Z,20.92
2018-08-25T18:25:35.995Z,20.88
2018-08-25T18:28:05.393Z,20.83
2018-08-25T18:30:34.701Z,20.78
2018-08-25T18:33:04.030Z,20.73
2018-08-25T18:35:33.351Z,20.68
2018-08-25T18:38:02.730Z,20.64
2018-08-25T18:40:32.119Z,20.61
2018-08-25T18:43:01.379Z,20.55
2018-08-25T18:45:30.736Z,20.55
2018-08-25T18:47:59.993Z,20.51
2018-08-25T18:50:29.369Z,20.46
2018-08-25T18:52:58.632Z,20.43
2018-08-25T18:55:28.081Z,20.40
2018-08-25T18:57:57.420Z,20.39
2018-08-25T19:00:26.712Z,20.38
2018-08-25T19:02:56.026Z,20.40
2018-08-25T19:05:25.329Z,20.38
2018-08-25T19:07:54.666Z,20.38
2018-08-25T19:10:23.931Z,20.38
2018-08-25T19:12:53.270Z,20.36
2018-08-25T19:15:22.881Z,20.39
2018-08-25T19:17:52.561Z,20.41
2018-08-25T19:20:21.802Z,20.48
2018-08-25T19:22:51.104Z,20.50
2018-08-25T19:25:20.442Z,20.51
2018-08-25T19:27:49.701Z,20.55
2018-08-25T19:30:19.146Z,20.58
2018-08-25T19:32:48.601Z,20.64
2018-08-25T19:35:17.918Z,20.69
2018-08-25T19:37:47.257Z,20.74
2018-08-25T19:40:16.573Z,20.76
2018-08-25T19:42:45.903Z,20.82
2018-08-25T19:45:15.304Z,20.83
2018-08-25T19:47:44.781Z,20.80
2018-08-25T19:50:14.026Z,20.76
2018-08-25T19:52:43.406Z,20.78
2018-08-25T19:55:12.777Z,20.77
2018-08-25T19:57:42.071Z,20.77
2018-08-25T20:00:11.460Z,20.75
2018-08-25T20:02:40.797Z,20.72
2018-08-25T20:05:10.274Z,20.74
2018-08-25T20:07:39.630Z,20.70
2018-08-25T20:10:08.930Z,20.71
2018-08-25T20:12:38.263Z,20.67
2018-08-25T20:15:07.666Z,20.64
2018-08-25T20:17:37.010Z,20.62
2018-08-25T20:20:06.280Z,20.63
2018-08-25T20:22:35.628Z,20.62
2018-08-25T20:25:05.038Z,20.68
2018-08-25T20:27:34.359Z,20.75
2018-08-25T20:30:03.644Z,20.77
2018-08-25T20:32:32.921Z,20.85
2018-08-25T20:35:02.183Z,20.86
2018-08-25T20:37:31.249Z,20.87
2018-08-25T20:40:00.341Z,20.87
2018-08-25T20:42:29.346Z,20.85
2018-08-25T20:44:58.462Z,20.88
2018-08-25T20:47:27.514Z,20.88
2018-08-25T20:49:56.585Z,20.86
2018-08-25T20:52:25.737Z,20.80
2018-08-25T20:54:54.830Z,20.77
2018-08-25T20:57:23.870Z,20.75
2018-08-25T20:59:52.849Z,20.72
2018-08-25T21:02:21.812Z,20.67
2018-08-25T21:04:50.764Z,20.64
2018-08-25T21:07:19.728Z,20.61
2018-08-25T21:09:48.754Z,20.59
2018-08-25T21:12:17.691Z,20.53
2018-08-25T21:14:46.649Z,20.54
2018-08-25T21:17:15.645Z,20.50
2018-08-25T21:19:44.706Z,20.46
2018-08-25T21:22:13.762Z,20.50
2018-08-25T21:24:42.821Z,20.46
2018-08-25T21:27:11.912Z,20.46
2018-08-25T21:29:40.856Z,20.45
2018-08-25T21:32:09.804Z,20.44
2018-08-25T21:34:38.746Z,20.42
2018-08-25T21:37:07.951Z,20.40
2018-08-25T21:39:36.953Z,20.40
2018-08-25T21:42:05.943Z,20.40
2018-08-25T21:44:35.026Z,20.39
2018-08-25T21:47:04.083Z,20.33
2018-08-25T21:49:33.024Z,20.34
2018-08-25T21:52:02.026Z,20.35
2018-08-25T21:54:31.028Z,20.36
2018-08-25T21:56:59.997Z,20.33
2018-08-25T21:59:28.936Z,20.36
2018-08-25T22:01:58.490Z,20.37
2018-08-25T22:04:28.632Z,20.38
2018-08-25T22:06:57.963Z,20.31
2018-08-25T22:09:26.963Z,20.31
2018-08-25T22:11:56.060Z,20.30
2018-08-25T22:14:25.053Z,20.28
2018-08-25T22:16:53.964Z,20.28
2018-08-25T22:19:22.954Z,20.25
2018-08-25T22:21:51.997Z,20.24
2018-08-25T22:24:20.932Z,20.22
2018-08-25T22:26:49.913Z,20.25
2018-08-25T22:29:18.900Z,20.25
2018-08-25T22:31:47.878Z,20.26
2018-08-25T22:34:16.792Z,20.27
2018-08-25T22:36:45.768Z,20.29
2018-08-25T22:39:14.736Z,20.27
2018-08-25T22:41:43.780Z,20.28
2018-08-25T22:44:12.824Z,20.27
2018-08-25T22:46:41.736Z,20.29
2018-08-25T22:49:10.710Z,20.27
2018-08-25T22:51:39.686Z,20.25
2018-08-25T22:54:08.740Z,20.24
2018-08-25T22:56:37.777Z,20.25
2018-08-25T22:59:06.716Z,20.19
2018-08-25T23:01:35.789Z,20.19
2018-08-25T23:04:04.848Z,20.19
2018-08-25T23:06:33.784Z,20.16
2018-08-25T23:09:02.917Z,20.19
2018-08-25T23:11:31.972Z,20.14
2018-08-25T23:14:00.940Z,20.13
2018-08-25T23:16:29.942Z,20.11
2018-08-25T23:18:58.892Z,20.11
2018-08-25T23:21:27.872Z,20.11
2018-08-25T23:23:56.830Z,20.11
2018-08-25T23:26:25.816Z,20.13
2018-08-25T23:28:54.827Z,20.11
2018-08-25T23:31:23.822Z,20.09
2018-08-25T23:33:53.694Z,20.03
2018-08-25T23:36:22.652Z,20.04
2018-08-25T23:38:51.645Z,20.03
2018-08-25T23:41:20.601Z,20.00
2018-08-25T23:43:49.661Z,19.99
2018-08-25T23:46:18.684Z,19.95
2018-08-25T23:48:47.625Z,19.93
2018-08-25T23:51:16.677Z,19.93
2018-08-25T23:53:45.696Z,19.93
2018-08-25T23:56:14.701Z,19.92
2018-08-25T23:58:43.664Z,19.92
